createdAt,value
2022-08-03T00:00:24.354Z,101359.09
2022-08-03T00:02:51.466Z,101361.31
2022-08-03T00:05:18.067Z,101356.91
2022-08-03T00:07:44.543Z,101357.75
2022-08-03T00:10:12.630Z,101355.53
2022-08-03T00:12:39.174Z,101359.44
2022-08-03T00:15:08.337Z,101351.41
2022-08-03T00:17:52.589Z,101352.00
2022-08-03T00:20:23.322Z,101344.81
2022-08-03T00:22:50.398Z,101349.81
2022-08-03T00:25:17.643Z,101347.06
2022-08-03T00:27:44.140Z,101348.66
2022-08-03T00:30:10.958Z,101349.22
2022-08-03T00:32:40.036Z,101340.66
2022-08-03T00:35:18.067Z,101350.34
2022-08-03T00:37:58.728Z,101336.81
2022-08-03T00:40:26.292Z,101339.28
2022-08-03T00:42:57.943Z,101341.53
2022-08-03T00:45:32.826Z,101335.44
2022-08-03T00:48:00.345Z,101332.38
2022-08-03T00:50:29.839Z,101339.28
2022-08-03T00:52:59.204Z,101336.00
2022-08-03T00:55:26.119Z,101334.34
2022-08-03T00:57:53.313Z,101336.53
2022-08-03T01:00:26.270Z,101331.56
2022-08-03T01:02:53.861Z,101330.72
2022-08-03T01:05:22.112Z,101329.34
2022-08-03T01:08:08.216Z,101333.47
2022-08-03T01:10:53.167Z,101330.16
2022-08-03T01:14:01.686Z,101335.41
2022-08-03T01:16:37.331Z,101337.34
2022-08-03T01:19:21.820Z,101330.44
2022-08-03T01:22:08.208Z,101333.44
2022-08-03T01:24:50.855Z,101332.66
2022-08-03T01:27:38.931Z,101330.44
2022-08-03T01:30:10.060Z,101337.56
2022-08-03T01:32:59.860Z,101327.09
2022-08-03T01:35:31.627Z,101336.47
2022-08-03T01:38:03.351Z,101334.28
2022-08-03T01:40:34.368Z,101338.16
2022-08-03T01:43:03.455Z,101335.38
2022-08-03T01:45:34.129Z,101339.22
2022-08-03T01:48:02.738Z,101332.31
2022-08-03T01:50:31.838Z,101328.50
2022-08-03T01:52:59.266Z,101326.00
2022-08-03T01:55:29.587Z,101328.19
2022-08-03T01:58:06.062Z,101315.75
2022-08-03T02:00:36.615Z,101318.25
2022-08-03T02:03:05.907Z,101322.66
2022-08-03T02:05:33.222Z,101324.31
2022-08-03T02:08:01.866Z,101323.75
2022-08-03T02:10:35.365Z,101325.41
2022-08-03T02:13:05.174Z,101327.63
2022-08-03T02:15:33.857Z,101329.81
2022-08-03T02:18:02.020Z,101324.84
2022-08-03T02:20:30.228Z,101329.22
2022-08-03T02:22:56.751Z,101332.25
2022-08-03T02:25:23.616Z,101330.34
2022-08-03T02:27:58.030Z,101329.44
2022-08-03T02:30:31.112Z,101317.31
2022-08-03T02:32:59.295Z,101316.50
2022-08-03T02:35:29.489Z,101313.16
2022-08-03T02:38:02.253Z,101313.72
2022-08-03T02:40:30.447Z,101321.69
2022-08-03T02:43:00.509Z,101313.44
2022-08-03T02:45:29.360Z,101312.03
2022-08-03T02:48:02.679Z,101313.94
2022-08-03T02:50:30.672Z,101307.03
2022-08-03T02:52:58.884Z,101307.59
2022-08-03T02:55:26.597Z,101306.22
2022-08-03T02:57:54.445Z,101307.84
2022-08-03T03:00:28.228Z,101310.84
2022-08-03T03:03:01.586Z,101313.03
2022-08-03T03:05:53.244Z,101309.44
2022-08-03T03:08:20.917Z,101313.53
2022-08-03T03:10:55.932Z,101309.97
2022-08-03T03:13:23.202Z,101313.28
2022-08-03T03:15:50.909Z,101310.22
2022-08-03T03:18:22.108Z,101308.03
2022-08-03T03:20:51.608Z,101316.81
2022-08-03T03:23:19.744Z,101321.53
2022-08-03T03:25:46.833Z,101313.50
2022-08-03T03:28:13.619Z,101312.66
2022-08-03T03:30:40.177Z,101308.78
2022-08-03T03:33:07.458Z,101315.94
2022-08-03T03:35:38.913Z,101313.72
2022-08-03T03:38:06.771Z,101307.66
2022-08-03T03:40:35.561Z,101316.75
2022-08-03T03:43:02.744Z,101313.72
2022-08-03T03:45:31.695Z,101310.97
2022-08-03T03:48:00.635Z,101314.03
2022-08-03T03:50:28.654Z,101316.25
2022-08-03T03:52:55.253Z,101309.91
2022-08-03T03:55:21.798Z,101315.41
2022-08-03T03:57:48.347Z,101310.75
2022-08-03T04:00:16.956Z,101303.56
2022-08-03T04:02:44.438Z,101306.06
2022-08-03T04:05:29.866Z,101304.69
2022-08-03T04:08:18.445Z,101308.03
2022-08-03T04:11:00.465Z,101309.13
2022-08-03T04:13:33.930Z,101304.69
2022-08-03T04:16:02.457Z,101310.22
2022-08-03T04:18:32.742Z,101309.66
2022-08-03T04:21:03.519Z,101311.88
2022-08-03T04:23:34.668Z,101312.16
2022-08-03T04:26:03.234Z,101307.50
2022-08-03T04:28:32.570Z,101308.06
2022-08-03T04:31:01.291Z,101303.44
2022-08-03T04:33:31.512Z,101305.13
2022-08-03T04:36:03.485Z,101304.84
2022-08-03T04:38:36.361Z,101310.91
2022-08-03T04:41:03.726Z,101307.63
2022-08-03T04:43:33.602Z,101317.28
2022-08-03T04:46:01.531Z,101323.59
2022-08-03T04:48:28.805Z,101318.94
2022-08-03T04:50:55.706Z,101315.34
2022-08-03T04:53:22.535Z,101310.13
2022-08-03T04:55:49.814Z,101312.63
2022-08-03T04:58:16.362Z,101314.34
2022-08-03T05:00:43.223Z,101320.72
2022-08-03T05:03:20.535Z,101318.22
2022-08-03T05:06:01.971Z,101320.75
2022-08-03T05:08:46.306Z,101320.50
2022-08-03T05:11:16.377Z,101320.50
2022-08-03T05:13:43.620Z,101321.91
2022-08-03T05:16:10.273Z,101320.53
2022-08-03T05:18:36.909Z,101327.16
2022-08-03T05:21:04.999Z,101321.63
2022-08-03T05:23:31.557Z,101320.53
2022-08-03T05:25:58.151Z,101318.31
2022-08-03T05:28:24.692Z,101328.53
2022-08-03T05:30:51.215Z,101327.69
2022-08-03T05:33:17.728Z,101319.91
2022-08-03T05:35:56.195Z,101326.50
2022-08-03T05:38:34.103Z,101326.50
2022-08-03T05:41:22.365Z,101317.31
2022-08-03T05:43:49.342Z,101317.25
2022-08-03T05:46:16.079Z,101318.06
2022-08-03T05:48:42.938Z,101329.31
2022-08-03T05:51:11.875Z,101326.78
2022-08-03T05:53:39.812Z,101320.03
2022-08-03T05:56:13.697Z,101319.94
2022-08-03T05:58:43.596Z,101317.66
2022-08-03T06:01:10.178Z,101317.53
2022-08-03T06:03:36.726Z,101314.66
2022-08-03T06:06:03.272Z,101325.91
2022-08-03T06:08:29.818Z,101316.09
2022-08-03T06:10:56.301Z,101320.41
2022-08-03T06:13:22.797Z,101321.13
2022-08-03T06:15:49.296Z,101321.91
2022-08-03T06:18:16.160Z,101313.75
2022-08-03T06:20:42.643Z,101321.66
2022-08-03T06:23:15.907Z,101323.66
2022-08-03T06:25:44.674Z,101317.53
2022-08-03T06:28:35.460Z,101319.97
2022-08-03T06:30:59.228Z,101321.91
2022-08-03T06:33:26.567Z,101319.13
2022-08-03T06:36:13.024Z,101334.28
2022-08-03T06:38:39.540Z,101331.97
2022-08-03T06:41:06.034Z,101330.59
2022-08-03T06:43:35.996Z,101331.47
2022-08-03T06:46:03.181Z,101330.44
2022-08-03T06:48:29.953Z,101330.16
2022-08-03T06:50:56.776Z,101332.84
2022-08-03T06:53:23.254Z,101335.09
2022-08-03T06:55:54.184Z,101333.53
2022-08-03T06:58:21.253Z,101338.97
2022-08-03T07:00:48.062Z,101345.78
2022-08-03T07:03:15.168Z,101344.31
2022-08-03T07:05:42.372Z,101345.31
2022-08-03T07:08:09.127Z,101350.69
2022-08-03T07:10:36.224Z,101353.16
2022-08-03T07:13:02.789Z,101350.78
2022-08-03T07:15:54.413Z,101347.44
2022-08-03T07:18:15.937Z,101346.22
2022-08-03T07:20:42.570Z,101341.63
2022-08-03T07:23:09.909Z,101349.28
2022-08-03T07:25:42.583Z,101355.34
2022-08-03T07:28:09.094Z,101347.69
2022-08-03T07:30:36.027Z,101351.13
2022-08-03T07:33:02.585Z,101350.50
2022-08-03T07:35:29.196Z,101351.78
2022-08-03T07:37:55.680Z,101356.47
2022-08-03T07:40:22.939Z,101360.13
2022-08-03T07:42:53.249Z,101356.53
2022-08-03T07:45:21.476Z,101346.72
2022-08-03T07:47:53.313Z,101355.66
2022-08-03T07:50:21.241Z,101353.09
2022-08-03T07:52:48.022Z,101351.38
2022-08-03T07:55:14.926Z,101355.53
2022-08-03T07:57:41.627Z,101359.00
2022-08-03T08:00:15.932Z,101359.53
2022-08-03T08:02:42.804Z,101354.69
2022-08-03T08:05:11.006Z,101357.00
2022-08-03T08:07:40.386Z,101363.13
2022-08-03T08:10:10.051Z,101357.56
2022-08-03T08:12:40.191Z,101362.22
2022-08-03T08:15:07.936Z,101354.16
2022-08-03T08:17:48.743Z,101365.16
2022-08-03T08:20:28.000Z,101363.16
2022-08-03T08:23:01.078Z,101368.91
2022-08-03T08:25:29.441Z,101362.16
2022-08-03T08:28:29.185Z,101361.97
2022-08-03T08:30:42.540Z,101357.84
2022-08-03T08:33:22.152Z,101366.06
2022-08-03T08:35:50.510Z,101366.06
2022-08-03T08:38:17.028Z,101361.16
2022-08-03T08:40:43.679Z,101359.31
2022-08-03T08:43:10.175Z,101362.25
2022-08-03T08:45:37.627Z,101367.84
2022-08-03T08:48:08.385Z,101358.44
2022-08-03T08:50:37.510Z,101361.50
2022-08-03T08:53:09.824Z,101355.97
2022-08-03T08:55:59.097Z,101354.00
2022-08-03T08:58:30.292Z,101358.38
2022-08-03T09:00:57.159Z,101359.16
2022-08-03T09:03:29.636Z,101356.28
2022-08-03T09:05:58.823Z,101362.19
2022-08-03T09:08:25.799Z,101363.34
2022-08-03T09:10:52.549Z,101362.19
2022-08-03T09:13:19.581Z,101365.47
2022-08-03T09:16:00.918Z,101363.41
2022-08-03T09:18:33.117Z,101357.69
2022-08-03T09:21:31.606Z,101356.84
2022-08-03T09:24:03.204Z,101362.31
2022-08-03T09:26:31.874Z,101364.78
2022-08-03T09:29:05.648Z,101362.94
2022-08-03T09:31:46.892Z,101354.75
2022-08-03T09:34:15.981Z,101363.50
2022-08-03T09:36:44.855Z,101366.59
2022-08-03T09:39:13.655Z,101358.06
2022-08-03T09:41:42.452Z,101357.47
2022-08-03T09:44:25.233Z,101354.78
2022-08-03T09:46:56.705Z,101361.78
2022-08-03T09:49:24.542Z,101357.59
2022-08-03T09:52:32.734Z,101349.53
2022-08-03T09:54:38.814Z,101359.56
2022-08-03T09:57:05.372Z,101357.94
2022-08-03T09:59:33.304Z,101359.91
2022-08-03T10:02:00.633Z,101352.22
2022-08-03T10:04:27.813Z,101352.88
2022-08-03T10:07:09.462Z,101340.13
2022-08-03T10:09:37.950Z,101339.66
2022-08-03T10:12:11.054Z,101332.03
2022-08-03T10:14:42.146Z,101349.09
2022-08-03T10:17:09.636Z,101342.81
2022-08-03T10:19:36.557Z,101338.84
2022-08-03T10:22:07.063Z,101339.97
2022-08-03T10:24:36.115Z,101337.97
2022-08-03T10:27:08.052Z,101348.31
2022-08-03T10:29:39.469Z,101345.50
2022-08-03T10:32:30.226Z,101347.81
2022-08-03T10:35:19.502Z,101339.47
2022-08-03T10:38:00.446Z,101342.06
2022-08-03T10:40:48.129Z,101336.91
2022-08-03T10:43:23.091Z,101339.63
2022-08-03T10:45:50.490Z,101336.72
2022-08-03T10:48:19.014Z,101336.25
2022-08-03T10:50:48.380Z,101332.63
2022-08-03T10:53:17.984Z,101340.25
2022-08-03T10:56:05.786Z,101340.91
2022-08-03T10:58:57.262Z,101344.28
2022-08-03T11:01:58.734Z,101335.78
2022-08-03T11:04:26.731Z,101328.69
2022-08-03T11:07:24.822Z,101341.34
2022-08-03T11:09:56.178Z,101343.13
2022-08-03T11:12:33.399Z,101339.56
2022-08-03T11:15:08.826Z,101346.56
2022-08-03T11:17:46.846Z,101338.56
2022-08-03T11:20:45.950Z,101336.19
2022-08-03T11:23:12.865Z,101335.84
2022-08-03T11:26:18.067Z,101338.47
2022-08-03T11:28:46.527Z,101331.28
2022-08-03T11:31:46.844Z,101346.63
2022-08-03T11:34:10.774Z,101343.13
2022-08-03T11:37:14.823Z,101343.44
2022-08-03T11:39:46.465Z,101339.28
2022-08-03T11:42:25.543Z,101347.63
2022-08-03T11:44:57.262Z,101337.41
2022-08-03T11:47:26.989Z,101339.16
2022-08-03T11:50:02.257Z,101336.09
2022-08-03T11:52:35.724Z,101341.63
2022-08-03T11:55:02.383Z,101333.66
2022-08-03T11:59:01.067Z,101329.31
2022-08-03T12:00:28.896Z,101332.75
2022-08-03T12:03:07.444Z,101326.13
2022-08-03T12:05:38.649Z,101327.94
2022-08-03T12:08:07.229Z,101322.94
2022-08-03T12:10:35.009Z,101334.31
2022-08-03T12:13:05.904Z,101335.59
2022-08-03T12:15:57.746Z,101330.28
2022-08-03T12:18:24.751Z,101323.50
2022-08-03T12:20:54.319Z,101324.56
2022-08-03T12:23:20.863Z,101330.66
2022-08-03T12:25:47.846Z,101328.94
2022-08-03T12:28:36.026Z,101328.56
2022-08-03T12:31:07.660Z,101326.13
2022-08-03T12:34:05.160Z,101328.66
2022-08-03T12:36:33.961Z,101326.78
2022-08-03T12:39:11.805Z,101319.16
2022-08-03T12:41:39.895Z,101315.59
2022-08-03T12:44:08.158Z,101324.00
2022-08-03T12:46:43.999Z,101327.56
2022-08-03T12:49:15.523Z,101321.13
2022-08-03T12:51:42.099Z,101310.84
2022-08-03T12:54:24.529Z,101316.22
2022-08-03T12:57:10.458Z,101305.03
2022-08-03T12:59:45.123Z,101316.50
2022-08-03T13:02:24.429Z,101315.56
2022-08-03T13:04:53.117Z,101316.09
2022-08-03T13:07:20.564Z,101320.75
2022-08-03T13:09:55.367Z,101315.81
2022-08-03T13:12:24.357Z,101306.81
2022-08-03T13:14:54.795Z,101307.75
2022-08-03T13:17:21.809Z,101305.41
2022-08-03T13:19:49.226Z,101306.78
2022-08-03T13:22:16.753Z,101306.59
2022-08-03T13:24:45.090Z,101312.47
2022-08-03T13:28:01.991Z,101305.38
2022-08-03T13:29:58.703Z,101314.41
2022-08-03T13:32:25.429Z,101309.75
2022-08-03T13:34:52.040Z,101308.78
2022-08-03T13:37:18.611Z,101309.31
2022-08-03T13:39:57.476Z,101305.47
2022-08-03T13:42:28.360Z,101313.91
2022-08-03T13:44:54.867Z,101308.16
2022-08-03T13:47:21.776Z,101300.75
2022-08-03T13:49:59.595Z,101300.31
2022-08-03T13:52:32.924Z,101301.06
2022-08-03T13:55:00.150Z,101289.31
2022-08-03T13:58:02.507Z,101290.09
2022-08-03T14:00:26.608Z,101286.81
2022-08-03T14:03:13.734Z,101289.72
2022-08-03T14:05:41.943Z,101285.44
2022-08-03T14:08:08.864Z,101283.22
2022-08-03T14:10:41.353Z,101287.94
2022-08-03T14:13:08.527Z,101288.72
2022-08-03T14:15:37.892Z,101287.03
2022-08-03T14:18:13.026Z,101284.94
2022-08-03T14:20:49.031Z,101291.00
2022-08-03T14:23:21.023Z,101287.44
2022-08-03T14:25:51.514Z,101291.34
2022-08-03T14:28:20.877Z,101291.97
2022-08-03T14:30:48.540Z,101288.44
2022-08-03T14:33:15.375Z,101281.88
2022-08-03T14:35:41.945Z,101283.31
2022-08-03T14:38:08.428Z,101279.69
2022-08-03T14:40:35.015Z,101286.00
2022-08-03T14:43:02.563Z,101285.25
2022-08-03T14:45:29.372Z,101280.88
2022-08-03T14:50:29.392Z,101274.00
2022-08-03T14:50:48.403Z,101285.50
2022-08-03T14:53:17.749Z,101276.50
2022-08-03T14:55:50.557Z,101281.44
2022-08-03T14:58:25.377Z,101269.09
2022-08-03T15:00:53.413Z,101273.56
2022-08-03T15:03:23.588Z,101272.38
2022-08-03T15:05:54.362Z,101264.66
2022-08-03T15:08:22.313Z,101267.25
2022-08-03T15:10:49.713Z,101269.84
2022-08-03T15:13:17.652Z,101262.88
2022-08-03T15:15:44.172Z,101258.19
2022-08-03T15:18:11.076Z,101264.53
2022-08-03T15:20:46.206Z,101263.22
2022-08-03T15:23:14.735Z,101266.72
2022-08-03T15:26:06.524Z,101259.38
2022-08-03T15:28:29.027Z,101264.34
2022-08-03T15:30:55.506Z,101256.00
2022-08-03T15:33:22.001Z,101259.16
2022-08-03T15:35:49.728Z,101257.16
2022-08-03T15:38:16.307Z,101261.25
2022-08-03T15:40:43.003Z,101264.28
2022-08-03T15:43:09.718Z,101262.25
2022-08-03T15:45:37.049Z,101261.34
2022-08-03T15:48:06.843Z,101262.09
2022-08-03T15:50:33.378Z,101258.25
2022-08-03T15:52:59.934Z,101258.25
2022-08-03T15:55:27.227Z,101252.75
2022-08-03T15:58:59.573Z,101259.06
2022-08-03T16:00:41.442Z,101256.81
2022-08-03T16:03:08.038Z,101260.19
2022-08-03T16:05:35.250Z,101252.47
2022-08-03T16:08:04.177Z,101258.84
2022-08-03T16:10:32.209Z,101257.84
2022-08-03T16:13:00.003Z,101260.19
2022-08-03T16:15:26.896Z,101251.03
2022-08-03T16:17:53.468Z,101263.22
2022-08-03T16:20:31.463Z,101252.13
2022-08-03T16:23:10.898Z,101259.94
2022-08-03T16:25:39.767Z,101256.13
2022-08-03T16:28:13.062Z,101254.13
2022-08-03T16:30:42.875Z,101253.66
2022-08-03T16:33:10.119Z,101251.03
2022-08-03T16:35:36.764Z,101250.56
2022-08-03T16:38:09.306Z,101254.47
2022-08-03T16:40:36.872Z,101247.78
2022-08-03T16:43:17.952Z,101244.22
2022-08-03T16:45:46.144Z,101252.69
2022-08-03T16:48:12.633Z,101243.88
2022-08-03T16:50:39.196Z,101251.47
2022-08-03T16:53:10.051Z,101248.63
2022-08-03T16:55:48.496Z,101253.25
2022-08-03T16:58:34.801Z,101254.63
2022-08-03T17:01:10.913Z,101253.66
2022-08-03T17:04:01.182Z,101258.19
2022-08-03T17:06:34.218Z,101257.91
2022-08-03T17:09:01.971Z,101263.41
2022-08-03T17:11:30.190Z,101257.66
2022-08-03T17:14:00.208Z,101272.34
2022-08-03T17:16:27.212Z,101268.50
2022-08-03T17:19:02.562Z,101268.63
2022-08-03T17:21:32.387Z,101258.16
2022-08-03T17:24:19.949Z,101261.47
2022-08-03T17:26:50.094Z,101258.34
2022-08-03T17:29:22.910Z,101260.91
2022-08-03T17:31:53.343Z,101252.50
2022-08-03T17:34:26.286Z,101259.97
2022-08-03T17:37:27.394Z,101265.31
2022-08-03T17:39:58.273Z,101249.47
2022-08-03T17:42:30.295Z,101255.78
2022-08-03T17:44:58.085Z,101255.66
2022-08-03T17:47:29.355Z,101254.16
2022-08-03T17:50:25.378Z,101252.72
2022-08-03T17:53:01.061Z,101255.97
2022-08-03T17:55:54.862Z,101257.69
2022-08-03T17:58:25.877Z,101261.03
2022-08-03T18:01:59.213Z,101258.06
2022-08-03T18:04:10.962Z,101263.59
2022-08-03T18:06:55.804Z,101266.91
2022-08-03T18:10:06.112Z,101270.19
2022-08-03T18:12:27.333Z,101269.91
2022-08-03T18:15:08.660Z,101276.47
2022-08-03T18:17:55.479Z,101281.16
2022-08-03T18:20:32.955Z,101279.41
2022-08-03T18:23:06.388Z,101273.22
2022-08-03T18:25:45.227Z,101279.91
2022-08-03T18:28:14.593Z,101281.28
2022-08-03T18:30:54.399Z,101281.00
2022-08-03T18:36:18.134Z,101280.22
2022-08-03T18:38:51.810Z,101284.56
2022-08-03T18:41:32.232Z,101284.41
2022-08-03T18:44:08.566Z,101287.47
2022-08-03T18:47:16.693Z,101294.56
2022-08-03T18:50:01.460Z,101295.47
2022-08-03T18:52:40.126Z,101297.72
2022-08-03T18:55:33.039Z,101305.50
2022-08-03T18:58:09.026Z,101303.88
2022-08-03T19:01:57.903Z,101311.06
2022-08-03T19:04:08.119Z,101314.16
2022-08-03T19:06:41.946Z,101310.59
2022-08-03T19:09:15.443Z,101315.19
2022-08-03T19:12:12.797Z,101312.88
2022-08-03T19:14:43.131Z,101315.91
2022-08-03T19:17:11.978Z,101317.78
2022-08-03T19:19:44.870Z,101316.97
2022-08-03T19:22:15.798Z,101317.44
2022-08-03T19:24:45.820Z,101317.69
2022-08-03T19:27:13.505Z,101326.03
2022-08-03T19:32:34.995Z,101328.25
2022-08-03T19:35:04.615Z,101328.00
2022-08-03T19:37:40.395Z,101325.47
2022-08-03T19:40:10.242Z,101323.72
2022-08-03T19:42:40.457Z,101324.97
2022-08-03T19:45:11.373Z,101320.03
2022-08-03T19:47:55.050Z,101330.19
2022-08-03T19:50:21.597Z,101333.41
2022-08-03T19:52:49.657Z,101332.66
2022-08-03T19:55:17.817Z,101334.41
2022-08-03T19:57:49.390Z,101332.00
2022-08-03T20:00:19.610Z,101340.56
2022-08-03T20:02:47.280Z,101336.22
2022-08-03T20:05:18.176Z,101334.81
2022-08-03T20:07:47.745Z,101328.00
2022-08-03T20:10:17.939Z,101334.19
2022-08-03T20:12:45.876Z,101328.59
2022-08-03T20:15:13.199Z,101330.81
2022-08-03T20:20:33.020Z,101327.38
2022-08-03T20:23:06.819Z,101336.34
2022-08-03T20:25:48.615Z,101337.34
2022-08-03T20:28:49.734Z,101326.31
2022-08-03T20:31:17.602Z,101343.16
2022-08-03T20:33:48.477Z,101334.44
2022-08-03T20:36:31.070Z,101338.66
2022-08-03T20:38:58.187Z,101343.75
2022-08-03T20:41:25.407Z,101348.78
2022-08-03T20:43:51.990Z,101351.25
2022-08-03T20:46:29.216Z,101350.34
2022-08-03T20:49:01.405Z,101350.34
2022-08-03T20:51:49.820Z,101351.31
2022-08-03T20:54:28.770Z,101355.13
2022-08-03T20:56:58.909Z,101359.88
2022-08-03T20:59:47.057Z,101356.97
2022-08-03T21:02:28.924Z,101358.59
2022-08-03T21:04:57.268Z,101358.31
2022-08-03T21:07:24.887Z,101353.56
2022-08-03T21:10:13.666Z,101365.50
2022-08-03T21:12:53.569Z,101363.66
2022-08-03T21:13:02.300Z,101323.06
2022-08-03T21:13:03.793Z,101333.25
2022-08-03T21:13:04.544Z,101287.78
2022-08-03T21:16:11.352Z,101367.09
2022-08-03T21:18:20.193Z,101360.75
2022-08-03T21:20:48.258Z,101363.44
2022-08-03T21:23:37.087Z,101366.28
2022-08-03T21:26:03.071Z,101359.22
2022-08-03T21:28:29.755Z,101365.38
2022-08-03T21:30:59.542Z,101365.34
2022-08-03T21:33:27.962Z,101372.06
2022-08-03T21:35:54.731Z,101360.13
2022-08-03T21:38:29.942Z,101363.31
2022-08-03T21:40:57.198Z,101367.69
2022-08-03T21:43:24.499Z,101370.38
2022-08-03T21:45:59.596Z,101362.41
2022-08-03T21:48:28.027Z,101370.25
2022-08-03T21:50:54.963Z,101368.06
2022-08-03T21:53:25.653Z,101369.22
2022-08-03T21:56:16.736Z,101368.22
2022-08-03T21:58:51.263Z,101370.09
2022-08-03T22:01:22.104Z,101367.72
2022-08-03T22:03:51.165Z,101361.88
2022-08-03T22:06:22.440Z,101364.66
2022-08-03T22:08:53.825Z,101360.25
2022-08-03T22:11:21.380Z,101357.47
2022-08-03T22:13:48.236Z,101358.69
2022-08-03T22:16:15.917Z,101367.00
2022-08-03T22:18:45.558Z,101359.50
2022-08-03T22:21:15.553Z,101362.25
2022-08-03T22:23:45.735Z,101365.09
2022-08-03T22:26:17.798Z,101362.50
2022-08-03T22:29:01.834Z,101363.78
2022-08-03T22:31:57.002Z,101370.59
2022-08-03T22:34:15.902Z,101370.97
2022-08-03T22:36:42.870Z,101365.81
2022-08-03T22:39:09.950Z,101363.16
2022-08-03T22:41:36.585Z,101364.00
2022-08-03T22:44:04.780Z,101367.16
2022-08-03T22:46:33.844Z,101374.31
2022-08-03T22:49:00.933Z,101375.06
2022-08-03T22:51:28.965Z,101371.78
2022-08-03T22:53:56.318Z,101373.47
2022-08-03T22:56:23.331Z,101365.13
2022-08-03T22:58:49.836Z,101358.38
2022-08-03T23:01:20.912Z,101367.31
2022-08-03T23:04:02.054Z,101364.31
2022-08-03T23:06:34.551Z,101364.66
2022-08-03T23:09:05.561Z,101367.44
2022-08-03T23:11:36.572Z,101366.38
2022-08-03T23:14:10.090Z,101364.47
2022-08-03T23:16:39.654Z,101363.69
2022-08-03T23:19:17.430Z,101366.19
2022-08-03T23:22:02.381Z,101358.47
2022-08-03T23:24:33.302Z,101359.31
2022-08-03T23:27:02.911Z,101359.88
2022-08-03T23:29:31.540Z,101360.16
2022-08-03T23:31:59.653Z,101359.63
2022-08-03T23:34:46.558Z,101356.84
2022-08-03T23:37:15.020Z,101352.69
2022-08-03T23:39:45.244Z,101349.66
2022-08-03T23:42:15.128Z,101347.13
2022-08-03T23:44:42.829Z,101350.41
2022-08-03T23:47:09.377Z,101347.34
2022-08-03T23:49:36.013Z,101349.78
2022-08-03T23:52:26.766Z,101342.53
2022-08-03T23:55:03.237Z,101345.00
2022-08-03T23:57:45.658Z,101343.53
